sensor_id;sensor_type;location;lat;lon;timestamp;P1;durP1;ratioP1;P2;durP2;ratioP2
56233;SDS011;42141;53.240;6.580;2022-11-15T00:00:40;25.88;;;15.57;;
56233;SDS011;42141;53.240;6.580;2022-11-15T00:03:06;27.50;;;16.63;;
56233;SDS011;42141;53.240;6.580;2022-11-15T00:05:34;24.05;;;16.30;;
56233;SDS011;42141;53.240;6.580;2022-11-15T00:08:01;23.88;;;15.32;;
56233;SDS011;42141;53.240;6.580;2022-11-15T00:10:26;29.73;;;15.98;;
56233;SDS011;42141;53.240;6.580;2022-11-15T00:12:52;27.05;;;16.80;;
56233;SDS011;42141;53.240;6.580;2022-11-15T00:15:18;27.00;;;16.92;;
56233;SDS011;42141;53.240;6.580;2022-11-15T00:17:43;24.20;;;14.70;;
56233;SDS011;42141;53.240;6.580;2022-11-15T00:20:09;25.05;;;16.27;;
56233;SDS011;42141;53.240;6.580;2022-11-15T00:22:36;21.80;;;14.68;;
56233;SDS011;42141;53.240;6.580;2022-11-15T00:25:03;21.58;;;13.88;;
56233;SDS011;42141;53.240;6.580;2022-11-15T00:27:29;24.85;;;15.32;;
56233;SDS011;42141;53.240;6.580;2022-11-15T00:29:54;26.70;;;15.18;;
56233;SDS011;42141;53.240;6.580;2022-11-15T00:32:20;24.33;;;15.35;;
56233;SDS011;42141;53.240;6.580;2022-11-15T00:34:45;22.88;;;15.60;;
56233;SDS011;42141;53.240;6.580;2022-11-15T00:37:11;22.02;;;15.57;;
56233;SDS011;42141;53.240;6.580;2022-11-15T00:39:37;23.65;;;15.95;;
56233;SDS011;42141;53.240;6.580;2022-11-15T00:42:02;23.92;;;15.75;;
56233;SDS011;42141;53.240;6.580;2022-11-15T00:44:28;26.17;;;16.48;;
56233;SDS011;42141;53.240;6.580;2022-11-15T00:46:54;27.38;;;16.17;;
56233;SDS011;42141;53.240;6.580;2022-11-15T00:49:19;23.38;;;16.20;;
56233;SDS011;42141;53.240;6.580;2022-11-15T00:51:45;23.95;;;16.60;;
56233;SDS011;42141;53.240;6.580;2022-11-15T00:54:11;25.30;;;15.52;;
56233;SDS011;42141;53.240;6.580;2022-11-15T00:56:36;23.13;;;15.77;;
56233;SDS011;42141;53.240;6.580;2022-11-15T00:59:02;23.92;;;16.63;;
56233;SDS011;42141;53.240;6.580;2022-11-15T01:01:28;25.60;;;16.98;;
56233;SDS011;42141;53.240;6.580;2022-11-15T01:03:53;28.88;;;16.60;;
56233;SDS011;42141;53.240;6.580;2022-11-15T01:06:19;24.42;;;16.77;;
56233;SDS011;42141;53.240;6.580;2022-11-15T01:08:45;25.77;;;16.90;;
56233;SDS011;42141;53.240;6.580;2022-11-15T01:11:11;23.35;;;17.10;;
56233;SDS011;42141;53.240;6.580;2022-11-15T01:13:38;25.15;;;15.85;;
56233;SDS011;42141;53.240;6.580;2022-11-15T01:18:40;25.05;;;16.20;;
56233;SDS011;42141;53.240;6.580;2022-11-15T01:21:09;25.58;;;15.77;;
56233;SDS011;42141;53.240;6.580;2022-11-15T01:23:37;23.30;;;15.82;;
56233;SDS011;42141;53.240;6.580;2022-11-15T01:26:04;23.58;;;14.90;;
56233;SDS011;42141;53.240;6.580;2022-11-15T01:28:31;24.05;;;16.10;;
56233;SDS011;42141;53.240;6.580;2022-11-15T01:30:59;24.08;;;15.65;;
56233;SDS011;42141;53.240;6.580;2022-11-15T01:33:26;24.23;;;15.65;;
56233;SDS011;42141;53.240;6.580;2022-11-15T01:35:52;21.38;;;14.88;;
56233;SDS011;42141;53.240;6.580;2022-11-15T01:38:18;26.13;;;15.98;;
56233;SDS011;42141;53.240;6.580;2022-11-15T01:40:44;28.58;;;16.38;;
56233;SDS011;42141;53.240;6.580;2022-11-15T01:43:26;23.60;;;16.00;;
56233;SDS011;42141;53.240;6.580;2022-11-15T01:46:04;24.25;;;16.75;;
56233;SDS011;42141;53.240;6.580;2022-11-15T01:48:38;26.73;;;17.15;;
56233;SDS011;42141;53.240;6.580;2022-11-15T01:51:06;29.25;;;16.23;;
56233;SDS011;42141;53.240;6.580;2022-11-15T01:53:34;28.67;;;17.25;;
56233;SDS011;42141;53.240;6.580;2022-11-15T01:56:05;26.77;;;16.95;;
56233;SDS011;42141;53.240;6.580;2022-11-15T01:58:34;25.95;;;16.83;;
56233;SDS011;42141;53.240;6.580;2022-11-15T02:01:01;28.05;;;16.70;;
56233;SDS011;42141;53.240;6.580;2022-11-15T02:03:30;25.95;;;15.43;;
56233;SDS011;42141;53.240;6.580;2022-11-15T02:06:00;24.63;;;16.80;;
56233;SDS011;42141;53.240;6.580;2022-11-15T02:08:28;27.88;;;16.10;;
56233;SDS011;42141;53.240;6.580;2022-11-15T02:10:54;25.30;;;15.57;;
56233;SDS011;42141;53.240;6.580;2022-11-15T02:13:20;26.55;;;16.23;;
56233;SDS011;42141;53.240;6.580;2022-11-15T02:15:56;26.67;;;16.73;;
56233;SDS011;42141;53.240;6.580;2022-11-15T02:19:19;22.98;;;14.35;;
56233;SDS011;42141;53.240;6.580;2022-11-15T02:21:41;21.10;;;13.70;;
56233;SDS011;42141;53.240;6.580;2022-11-15T02:24:34;22.38;;;14.15;;
56233;SDS011;42141;53.240;6.580;2022-11-15T02:32:34;25.13;;;14.70;;
56233;SDS011;42141;53.240;6.580;2022-11-15T02:35:27;20.95;;;14.00;;
56233;SDS011;42141;53.240;6.580;2022-11-15T02:41:02;26.60;;;14.18;;
56233;SDS011;42141;53.240;6.580;2022-11-15T02:46:35;23.55;;;15.02;;
56233;SDS011;42141;53.240;6.580;2022-11-15T02:49:25;30.27;;;16.00;;
56233;SDS011;42141;53.240;6.580;2022-11-15T02:51:54;30.35;;;15.77;;
56233;SDS011;42141;53.240;6.580;2022-11-15T02:54:39;25.42;;;14.93;;
56233;SDS011;42141;53.240;6.580;2022-11-15T02:57:06;29.42;;;16.08;;
56233;SDS011;42141;53.240;6.580;2022-11-15T03:05:41;30.80;;;16.13;;
56233;SDS011;42141;53.240;6.580;2022-11-15T03:11:09;29.17;;;15.57;;
56233;SDS011;42141;53.240;6.580;2022-11-15T03:13:53;34.17;;;17.02;;
56233;SDS011;42141;53.240;6.580;2022-11-15T03:16:37;28.42;;;15.80;;
56233;SDS011;42141;53.240;6.580;2022-11-15T03:19:25;35.88;;;17.90;;
56233;SDS011;42141;53.240;6.580;2022-11-15T03:22:00;30.48;;;16.33;;
56233;SDS011;42141;53.240;6.580;2022-11-15T03:24:30;32.55;;;18.75;;
56233;SDS011;42141;53.240;6.580;2022-11-15T03:27:00;32.70;;;17.33;;
56233;SDS011;42141;53.240;6.580;2022-11-15T03:29:30;32.67;;;16.90;;
56233;SDS011;42141;53.240;6.580;2022-11-15T03:32:07;34.10;;;18.20;;
56233;SDS011;42141;53.240;6.580;2022-11-15T03:34:41;32.38;;;17.77;;
56233;SDS011;42141;53.240;6.580;2022-11-15T03:37:20;31.85;;;16.75;;
56233;SDS011;42141;53.240;6.580;2022-11-15T03:39:49;34.40;;;16.65;;
56233;SDS011;42141;53.240;6.580;2022-11-15T03:47:38;38.05;;;17.92;;
56233;SDS011;42141;53.240;6.580;2022-11-15T03:50:11;33.38;;;17.50;;
56233;SDS011;42141;53.240;6.580;2022-11-15T03:52:39;31.38;;;17.27;;
56233;SDS011;42141;53.240;6.580;2022-11-15T03:55:06;30.90;;;16.13;;
56233;SDS011;42141;53.240;6.580;2022-11-15T03:57:35;29.35;;;15.82;;
56233;SDS011;42141;53.240;6.580;2022-11-15T04:00:02;35.25;;;17.60;;
56233;SDS011;42141;53.240;6.580;2022-11-15T04:02:28;29.88;;;15.88;;
56233;SDS011;42141;53.240;6.580;2022-11-15T04:04:54;34.58;;;17.02;;
56233;SDS011;42141;53.240;6.580;2022-11-15T04:07:20;34.28;;;16.75;;
56233;SDS011;42141;53.240;6.580;2022-11-15T04:09:45;28.98;;;17.38;;
56233;SDS011;42141;53.240;6.580;2022-11-15T04:12:34;33.20;;;17.83;;
56233;SDS011;42141;53.240;6.580;2022-11-15T04:17:36;33.95;;;17.48;;
56233;SDS011;42141;53.240;6.580;2022-11-15T04:20:11;32.97;;;16.38;;
56233;SDS011;42141;53.240;6.580;2022-11-15T04:22:56;34.75;;;16.98;;
56233;SDS011;42141;53.240;6.580;2022-11-15T04:25:42;31.50;;;17.20;;
56233;SDS011;42141;53.240;6.580;2022-11-15T04:28:09;33.38;;;16.42;;
56233;SDS011;42141;53.240;6.580;2022-11-15T04:30:35;34.78;;;17.13;;
56233;SDS011;42141;53.240;6.580;2022-11-15T04:33:00;34.63;;;18.88;;
56233;SDS011;42141;53.240;6.580;2022-11-15T04:35:26;34.05;;;18.77;;
56233;SDS011;42141;53.240;6.580;2022-11-15T04:37:52;35.35;;;17.90;;
56233;SDS011;42141;53.240;6.580;2022-11-15T04:40:19;35.20;;;18.10;;
56233;SDS011;42141;53.240;6.580;2022-11-15T04:42:44;37.03;;;18.30;;
56233;SDS011;42141;53.240;6.580;2022-11-15T04:45:10;34.30;;;17.70;;
56233;SDS011;42141;53.240;6.580;2022-11-15T04:47:36;39.70;;;18.38;;
56233;SDS011;42141;53.240;6.580;2022-11-15T04:50:02;42.85;;;18.92;;
56233;SDS011;42141;53.240;6.580;2022-11-15T04:52:28;41.38;;;19.83;;
56233;SDS011;42141;53.240;6.580;2022-11-15T04:54:54;43.28;;;19.10;;
56233;SDS011;42141;53.240;6.580;2022-11-15T04:57:19;40.67;;;17.70;;
56233;SDS011;42141;53.240;6.580;2022-11-15T04:59:45;36.95;;;18.17;;
56233;SDS011;42141;53.240;6.580;2022-11-15T05:02:11;38.38;;;18.75;;
56233;SDS011;42141;53.240;6.580;2022-11-15T05:04:37;37.40;;;19.13;;
56233;SDS011;42141;53.240;6.580;2022-11-15T05:07:03;42.47;;;18.60;;
56233;SDS011;42141;53.240;6.580;2022-11-15T05:09:31;37.47;;;17.60;;
56233;SDS011;42141;53.240;6.580;2022-11-15T05:11:57;43.97;;;19.05;;
56233;SDS011;42141;53.240;6.580;2022-11-15T05:14:23;39.83;;;19.05;;
56233;SDS011;42141;53.240;6.580;2022-11-15T05:16:48;40.15;;;19.45;;
56233;SDS011;42141;53.240;6.580;2022-11-15T05:19:14;39.30;;;18.85;;
56233;SDS011;42141;53.240;6.580;2022-11-15T05:21:40;42.70;;;19.75;;
56233;SDS011;42141;53.240;6.580;2022-11-15T05:24:06;42.05;;;18.67;;
56233;SDS011;42141;53.240;6.580;2022-11-15T05:26:33;45.63;;;20.05;;
56233;SDS011;42141;53.240;6.580;2022-11-15T05:28:59;44.40;;;20.50;;
56233;SDS011;42141;53.240;6.580;2022-11-15T05:31:25;45.28;;;20.70;;
56233;SDS011;42141;53.240;6.580;2022-11-15T05:33:51;46.38;;;21.20;;
56233;SDS011;42141;53.240;6.580;2022-11-15T05:36:28;50.67;;;20.90;;
56233;SDS011;42141;53.240;6.580;2022-11-15T05:38:58;53.65;;;22.05;;
56233;SDS011;42141;53.240;6.580;2022-11-15T05:41:32;46.17;;;22.88;;
56233;SDS011;42141;53.240;6.580;2022-11-15T05:44:02;51.38;;;20.95;;
56233;SDS011;42141;53.240;6.580;2022-11-15T05:46:31;50.33;;;22.20;;
56233;SDS011;42141;53.240;6.580;2022-11-15T05:48:58;61.88;;;22.13;;
56233;SDS011;42141;53.240;6.580;2022-11-15T05:51:24;56.33;;;24.55;;
56233;SDS011;42141;53.240;6.580;2022-11-15T05:53:52;54.53;;;24.55;;
56233;SDS011;42141;53.240;6.580;2022-11-15T05:56:21;55.25;;;23.23;;
56233;SDS011;42141;53.240;6.580;2022-11-15T05:58:47;53.42;;;22.83;;
56233;SDS011;42141;53.240;6.580;2022-11-15T06:01:13;64.05;;;26.20;;
56233;SDS011;42141;53.240;6.580;2022-11-15T06:03:39;57.78;;;24.00;;
56233;SDS011;42141;53.240;6.580;2022-11-15T06:06:04;58.50;;;23.10;;
56233;SDS011;42141;53.240;6.580;2022-11-15T06:08:30;62.67;;;24.23;;
56233;SDS011;42141;53.240;6.580;2022-11-15T06:10:56;60.22;;;24.35;;
56233;SDS011;42141;53.240;6.580;2022-11-15T06:13:22;62.08;;;25.48;;
56233;SDS011;42141;53.240;6.580;2022-11-15T06:15:47;67.38;;;24.70;;
56233;SDS011;42141;53.240;6.580;2022-11-15T06:18:13;67.25;;;26.20;;
56233;SDS011;42141;53.240;6.580;2022-11-15T06:20:39;60.10;;;26.38;;
56233;SDS011;42141;53.240;6.580;2022-11-15T06:23:04;64.55;;;26.20;;
56233;SDS011;42141;53.240;6.580;2022-11-15T06:25:30;73.55;;;26.77;;
56233;SDS011;42141;53.240;6.580;2022-11-15T06:27:57;67.50;;;27.85;;
56233;SDS011;42141;53.240;6.580;2022-11-15T06:30:24;62.00;;;24.38;;
56233;SDS011;42141;53.240;6.580;2022-11-15T06:32:51;67.55;;;26.05;;
56233;SDS011;42141;53.240;6.580;2022-11-15T06:35:23;51.45;;;24.50;;
56233;SDS011;42141;53.240;6.580;2022-11-15T06:37:48;62.55;;;25.42;;
56233;SDS011;42141;53.240;6.580;2022-11-15T06:40:14;65.80;;;24.88;;
56233;SDS011;42141;53.240;6.580;2022-11-15T06:42:40;63.83;;;26.00;;
56233;SDS011;42141;53.240;6.580;2022-11-15T06:45:06;63.88;;;25.48;;
56233;SDS011;42141;53.240;6.580;2022-11-15T06:47:32;73.35;;;26.40;;
56233;SDS011;42141;53.240;6.580;2022-11-15T06:49:58;63.40;;;25.33;;
56233;SDS011;42141;53.240;6.580;2022-11-15T06:52:23;72.70;;;26.65;;
56233;SDS011;42141;53.240;6.580;2022-11-15T06:54:49;55.38;;;26.25;;
56233;SDS011;42141;53.240;6.580;2022-11-15T06:57:14;60.60;;;25.80;;
56233;SDS011;42141;53.240;6.580;2022-11-15T06:59:40;71.88;;;28.65;;
56233;SDS011;42141;53.240;6.580;2022-11-15T07:02:06;52.90;;;25.90;;
56233;SDS011;42141;53.240;6.580;2022-11-15T07:04:35;59.88;;;27.92;;
56233;SDS011;42141;53.240;6.580;2022-11-15T07:07:01;72.53;;;27.98;;
56233;SDS011;42141;53.240;6.580;2022-11-15T07:09:27;60.53;;;26.33;;
56233;SDS011;42141;53.240;6.580;2022-11-15T07:11:52;59.83;;;27.00;;
56233;SDS011;42141;53.240;6.580;2022-11-15T07:14:18;58.55;;;27.45;;
56233;SDS011;42141;53.240;6.580;2022-11-15T07:16:44;58.50;;;25.63;;
56233;SDS011;42141;53.240;6.580;2022-11-15T07:19:09;69.68;;;27.13;;
56233;SDS011;42141;53.240;6.580;2022-11-15T07:21:35;62.97;;;24.95;;
56233;SDS011;42141;53.240;6.580;2022-11-15T07:24:01;67.13;;;27.27;;
56233;SDS011;42141;53.240;6.580;2022-11-15T07:26:27;54.15;;;24.15;;
56233;SDS011;42141;53.240;6.580;2022-11-15T07:28:52;62.13;;;26.35;;
56233;SDS011;42141;53.240;6.580;2022-11-15T07:31:18;57.45;;;26.55;;
56233;SDS011;42141;53.240;6.580;2022-11-15T07:33:44;64.65;;;25.77;;
56233;SDS011;42141;53.240;6.580;2022-11-15T07:36:09;54.95;;;25.63;;
56233;SDS011;42141;53.240;6.580;2022-11-15T07:38:35;67.13;;;27.67;;
56233;SDS011;42141;53.240;6.580;2022-11-15T07:41:02;63.28;;;26.63;;
56233;SDS011;42141;53.240;6.580;2022-11-15T07:43:29;61.25;;;26.55;;
56233;SDS011;42141;53.240;6.580;2022-11-15T07:45:55;59.28;;;26.08;;
56233;SDS011;42141;53.240;6.580;2022-11-15T07:48:23;59.63;;;26.27;;
56233;SDS011;42141;53.240;6.580;2022-11-15T07:50:49;50.70;;;25.48;;
56233;SDS011;42141;53.240;6.580;2022-11-15T07:53:14;65.68;;;28.70;;
56233;SDS011;42141;53.240;6.580;2022-11-15T07:55:41;55.50;;;24.27;;
56233;SDS011;42141;53.240;6.580;2022-11-15T07:58:08;48.05;;;26.42;;
56233;SDS011;42141;53.240;6.580;2022-11-15T08:00:35;49.33;;;25.75;;
56233;SDS011;42141;53.240;6.580;2022-11-15T08:03:06;54.63;;;24.55;;
56233;SDS011;42141;53.240;6.580;2022-11-15T08:05:33;52.15;;;24.00;;
56233;SDS011;42141;53.240;6.580;2022-11-15T08:08:00;47.58;;;24.45;;
56233;SDS011;42141;53.240;6.580;2022-11-15T08:10:26;42.13;;;22.70;;
56233;SDS011;42141;53.240;6.580;2022-11-15T08:13:08;49.40;;;24.05;;
56233;SDS011;42141;53.240;6.580;2022-11-15T08:15:35;44.35;;;21.75;;
56233;SDS011;42141;53.240;6.580;2022-11-15T08:18:03;42.40;;;21.95;;
56233;SDS011;42141;53.240;6.580;2022-11-15T08:20:31;43.20;;;21.27;;
56233;SDS011;42141;53.240;6.580;2022-11-15T08:22:57;46.38;;;22.63;;
56233;SDS011;42141;53.240;6.580;2022-11-15T08:25:25;41.47;;;23.25;;
56233;SDS011;42141;53.240;6.580;2022-11-15T08:27:52;39.90;;;22.58;;
56233;SDS011;42141;53.240;6.580;2022-11-15T08:30:18;37.60;;;21.23;;
56233;SDS011;42141;53.240;6.580;2022-11-15T08:32:44;37.47;;;21.42;;
56233;SDS011;42141;53.240;6.580;2022-11-15T08:35:10;47.80;;;21.60;;
56233;SDS011;42141;53.240;6.580;2022-11-15T08:37:36;36.10;;;19.33;;
56233;SDS011;42141;53.240;6.580;2022-11-15T08:40:02;35.83;;;20.92;;
56233;SDS011;42141;53.240;6.580;2022-11-15T08:42:29;44.28;;;21.52;;
56233;SDS011;42141;53.240;6.580;2022-11-15T08:44:54;35.65;;;20.67;;
56233;SDS011;42141;53.240;6.580;2022-11-15T08:47:20;39.15;;;20.63;;
56233;SDS011;42141;53.240;6.580;2022-11-15T08:49:46;33.85;;;19.77;;
56233;SDS011;42141;53.240;6.580;2022-11-15T08:52:11;41.53;;;19.92;;
56233;SDS011;42141;53.240;6.580;2022-11-15T08:54:38;37.47;;;19.00;;
56233;SDS011;42141;53.240;6.580;2022-11-15T08:57:04;32.63;;;19.25;;
56233;SDS011;42141;53.240;6.580;2022-11-15T08:59:29;32.72;;;18.50;;
56233;SDS011;42141;53.240;6.580;2022-11-15T09:01:55;28.63;;;17.13;;
56233;SDS011;42141;53.240;6.580;2022-11-15T09:04:21;31.40;;;18.17;;
56233;SDS011;42141;53.240;6.580;2022-11-15T09:06:46;32.35;;;18.02;;
56233;SDS011;42141;53.240;6.580;2022-11-15T09:09:12;28.77;;;15.85;;
56233;SDS011;42141;53.240;6.580;2022-11-15T09:11:38;30.10;;;19.10;;
56233;SDS011;42141;53.240;6.580;2022-11-15T09:14:03;25.98;;;16.95;;
56233;SDS011;42141;53.240;6.580;2022-11-15T09:16:30;25.20;;;16.58;;
56233;SDS011;42141;53.240;6.580;2022-11-15T09:18:56;28.75;;;15.88;;
56233;SDS011;42141;53.240;6.580;2022-11-15T09:21:22;24.73;;;15.13;;
56233;SDS011;42141;53.240;6.580;2022-11-15T09:23:50;24.17;;;15.73;;
56233;SDS011;42141;53.240;6.580;2022-11-15T09:26:17;24.08;;;14.77;;
56233;SDS011;42141;53.240;6.580;2022-11-15T09:28:43;23.63;;;14.70;;
56233;SDS011;42141;53.240;6.580;2022-11-15T09:31:09;28.85;;;14.13;;
56233;SDS011;42141;53.240;6.580;2022-11-15T09:33:35;23.23;;;14.55;;
56233;SDS011;42141;53.240;6.580;2022-11-15T09:36:06;24.15;;;15.10;;
56233;SDS011;42141;53.240;6.580;2022-11-15T09:38:33;23.80;;;14.13;;
56233;SDS011;42141;53.240;6.580;2022-11-15T09:49:30;20.45;;;12.80;;
56233;SDS011;42141;53.240;6.580;2022-11-15T09:51:57;23.27;;;13.00;;
56233;SDS011;42141;53.240;6.580;2022-11-15T09:54:26;24.77;;;13.80;;
56233;SDS011;42141;53.240;6.580;2022-11-15T09:57:30;34.10;;;14.55;;
56233;SDS011;42141;53.240;6.580;2022-11-15T10:02:54;24.77;;;13.98;;
56233;SDS011;42141;53.240;6.580;2022-11-15T10:05:28;21.52;;;12.73;;
56233;SDS011;42141;53.240;6.580;2022-11-15T10:10:59;20.98;;;12.98;;
56233;SDS011;42141;53.240;6.580;2022-11-15T10:13:28;21.92;;;14.25;;
56233;SDS011;42141;53.240;6.580;2022-11-15T10:16:04;22.23;;;12.80;;
56233;SDS011;42141;53.240;6.580;2022-11-15T10:24:24;21.65;;;13.23;;
56233;SDS011;42141;53.240;6.580;2022-11-15T10:26:54;19.50;;;12.65;;
56233;SDS011;42141;53.240;6.580;2022-11-15T10:29:21;19.13;;;12.15;;
56233;SDS011;42141;53.240;6.580;2022-11-15T10:31:47;17.80;;;11.38;;
56233;SDS011;42141;53.240;6.580;2022-11-15T10:34:17;20.45;;;11.93;;
56233;SDS011;42141;53.240;6.580;2022-11-15T10:36:46;21.70;;;11.68;;
56233;SDS011;42141;53.240;6.580;2022-11-15T10:39:19;28.58;;;11.95;;
56233;SDS011;42141;53.240;6.580;2022-11-15T10:41:44;18.98;;;11.75;;
56233;SDS011;42141;53.240;6.580;2022-11-15T10:46:48;18.55;;;12.02;;
56233;SDS011;42141;53.240;6.580;2022-11-15T10:49:24;16.98;;;11.88;;
56233;SDS011;42141;53.240;6.580;2022-11-15T10:51:57;24.80;;;11.07;;
56233;SDS011;42141;53.240;6.580;2022-11-15T10:54:46;23.75;;;11.30;;
56233;SDS011;42141;53.240;6.580;2022-11-15T10:57:21;20.50;;;10.23;;
56233;SDS011;42141;53.240;6.580;2022-11-15T10:59:57;18.92;;;11.52;;
56233;SDS011;42141;53.240;6.580;2022-11-15T11:07:30;24.17;;;10.50;;
56233;SDS011;42141;53.240;6.580;2022-11-15T11:10:03;20.65;;;11.68;;
56233;SDS011;42141;53.240;6.580;2022-11-15T11:12:41;15.68;;;10.75;;
56233;SDS011;42141;53.240;6.580;2022-11-15T11:15:14;20.50;;;11.07;;
56233;SDS011;42141;53.240;6.580;2022-11-15T11:26:35;18.15;;;11.20;;
56233;SDS011;42141;53.240;6.580;2022-11-15T11:31:39;20.98;;;12.25;;
56233;SDS011;42141;53.240;6.580;2022-11-15T11:34:45;16.33;;;12.70;;
56233;SDS011;42141;53.240;6.580;2022-11-15T11:37:35;15.48;;;11.35;;
56233;SDS011;42141;53.240;6.580;2022-11-15T11:42:54;13.70;;;9.45;;
56233;SDS011;42141;53.240;6.580;2022-11-15T11:48:04;16.77;;;9.90;;
56233;SDS011;42141;53.240;6.580;2022-11-15T11:50:59;15.35;;;10.32;;
56233;SDS011;42141;53.240;6.580;2022-11-15T11:53:39;15.23;;;9.63;;
56233;SDS011;42141;53.240;6.580;2022-11-15T11:56:16;11.48;;;8.75;;
56233;SDS011;42141;53.240;6.580;2022-11-15T11:59:02;11.68;;;8.25;;
56233;SDS011;42141;53.240;6.580;2022-11-15T12:01:45;13.88;;;8.27;;
56233;SDS011;42141;53.240;6.580;2022-11-15T12:07:19;13.48;;;6.88;;
56233;SDS011;42141;53.240;6.580;2022-11-15T12:09:32;15.10;;;7.63;;
56233;SDS011;42141;53.240;6.580;2022-11-15T12:15:02;8.85;;;6.40;;
56233;SDS011;42141;53.240;6.580;2022-11-15T12:17:38;8.88;;;6.03;;
56233;SDS011;42141;53.240;6.580;2022-11-15T12:30:51;12.77;;;4.47;;
56233;SDS011;42141;53.240;6.580;2022-11-15T12:33:28;11.35;;;4.78;;
56233;SDS011;42141;53.240;6.580;2022-11-15T12:36:08;6.50;;;4.22;;
56233;SDS011;42141;53.240;6.580;2022-11-15T12:38:58;25.13;;;6.20;;
56233;SDS011;42141;53.240;6.580;2022-11-15T12:43:52;5.80;;;4.85;;
56233;SDS011;42141;53.240;6.580;2022-11-15T12:49:42;8.95;;;5.15;;
56233;SDS011;42141;53.240;6.580;2022-11-15T13:05:24;7.20;;;3.95;;
56233;SDS011;42141;53.240;6.580;2022-11-15T13:10:29;12.65;;;3.55;;
56233;SDS011;42141;53.240;6.580;2022-11-15T13:12:59;7.85;;;3.13;;
56233;SDS011;42141;53.240;6.580;2022-11-15T13:15:31;8.95;;;4.15;;
56233;SDS011;42141;53.240;6.580;2022-11-15T13:18:23;9.05;;;3.42;;
56233;SDS011;42141;53.240;6.580;2022-11-15T13:20:52;7.63;;;2.72;;
56233;SDS011;42141;53.240;6.580;2022-11-15T13:23:18;6.00;;;2.70;;
56233;SDS011;42141;53.240;6.580;2022-11-15T13:26:09;10.57;;;2.90;;
56233;SDS011;42141;53.240;6.580;2022-11-15T13:28:42;6.70;;;2.70;;
56233;SDS011;42141;53.240;6.580;2022-11-15T13:31:23;12.25;;;2.80;;
56233;SDS011;42141;53.240;6.580;2022-11-15T13:34:19;8.27;;;2.13;;
56233;SDS011;42141;53.240;6.580;2022-11-15T13:36:47;6.43;;;2.70;;
56233;SDS011;42141;53.240;6.580;2022-11-15T13:39:34;6.32;;;2.83;;
56233;SDS011;42141;53.240;6.580;2022-11-15T13:41:59;5.95;;;2.70;;
56233;SDS011;42141;53.240;6.580;2022-11-15T13:44:26;10.25;;;3.33;;
56233;SDS011;42141;53.240;6.580;2022-11-15T13:47:27;24.17;;;4.25;;
56233;SDS011;42141;53.240;6.580;2022-11-15T13:49:46;15.75;;;3.58;;
56233;SDS011;42141;53.240;6.580;2022-11-15T13:52:13;10.32;;;3.00;;
56233;SDS011;42141;53.240;6.580;2022-11-15T13:54:50;8.80;;;2.92;;
56233;SDS011;42141;53.240;6.580;2022-11-15T13:57:19;4.60;;;2.35;;
56233;SDS011;42141;53.240;6.580;2022-11-15T13:59:59;6.22;;;2.60;;
56233;SDS011;42141;53.240;6.580;2022-11-15T14:02:32;4.95;;;2.17;;
56233;SDS011;42141;53.240;6.580;2022-11-15T14:05:19;16.33;;;2.78;;
56233;SDS011;42141;53.240;6.580;2022-11-15T14:07:57;12.45;;;2.97;;
56233;SDS011;42141;53.240;6.580;2022-11-15T14:10:29;6.25;;;2.28;;
56233;SDS011;42141;53.240;6.580;2022-11-15T14:12:59;7.78;;;2.63;;
56233;SDS011;42141;53.240;6.580;2022-11-15T14:17:57;7.82;;;3.15;;
56233;SDS011;42141;53.240;6.580;2022-11-15T14:20:31;10.95;;;3.70;;
56233;SDS011;42141;53.240;6.580;2022-11-15T14:23:17;4.93;;;2.78;;
56233;SDS011;42141;53.240;6.580;2022-11-15T14:25:55;4.43;;;3.05;;
56233;SDS011;42141;53.240;6.580;2022-11-15T14:30:48;9.52;;;2.67;;
56233;SDS011;42141;53.240;6.580;2022-11-15T14:35:44;5.47;;;2.33;;
56233;SDS011;42141;53.240;6.580;2022-11-15T14:38:10;6.13;;;2.60;;
56233;SDS011;42141;53.240;6.580;2022-11-15T14:40:35;4.38;;;2.60;;
56233;SDS011;42141;53.240;6.580;2022-11-15T14:43:08;4.43;;;1.92;;
56233;SDS011;42141;53.240;6.580;2022-11-15T14:45:36;6.57;;;2.38;;
56233;SDS011;42141;53.240;6.580;2022-11-15T14:48:02;5.45;;;2.38;;
56233;SDS011;42141;53.240;6.580;2022-11-15T14:50:28;5.13;;;2.38;;
56233;SDS011;42141;53.240;6.580;2022-11-15T14:52:54;8.38;;;2.22;;
56233;SDS011;42141;53.240;6.580;2022-11-15T14:55:21;5.15;;;2.30;;
56233;SDS011;42141;53.240;6.580;2022-11-15T14:57:47;4.70;;;1.98;;
56233;SDS011;42141;53.240;6.580;2022-11-15T15:00:13;5.80;;;2.45;;
56233;SDS011;42141;53.240;6.580;2022-11-15T15:02:40;5.20;;;2.45;;
56233;SDS011;42141;53.240;6.580;2022-11-15T15:05:18;4.05;;;2.72;;
56233;SDS011;42141;53.240;6.580;2022-11-15T15:07:45;4.13;;;2.25;;
56233;SDS011;42141;53.240;6.580;2022-11-15T15:10:12;6.05;;;2.63;;
56233;SDS011;42141;53.240;6.580;2022-11-15T15:12:39;6.80;;;2.67;;
56233;SDS011;42141;53.240;6.580;2022-11-15T15:15:05;7.15;;;2.50;;
56233;SDS011;42141;53.240;6.580;2022-11-15T15:17:37;10.73;;;2.70;;
56233;SDS011;42141;53.240;6.580;2022-11-15T15:20:02;3.38;;;2.03;;
56233;SDS011;42141;53.240;6.580;2022-11-15T15:22:28;5.55;;;2.08;;
56233;SDS011;42141;53.240;6.580;2022-11-15T15:24:55;8.70;;;2.63;;
56233;SDS011;42141;53.240;6.580;2022-11-15T15:27:21;4.78;;;2.40;;
56233;SDS011;42141;53.240;6.580;2022-11-15T15:29:46;4.68;;;2.50;;
56233;SDS011;42141;53.240;6.580;2022-11-15T15:32:12;4.55;;;2.10;;
56233;SDS011;42141;53.240;6.580;2022-11-15T15:34:38;4.63;;;2.53;;
56233;SDS011;42141;53.240;6.580;2022-11-15T15:39:58;4.22;;;2.42;;
56233;SDS011;42141;53.240;6.580;2022-11-15T15:42:24;2.80;;;2.15;;
56233;SDS011;42141;53.240;6.580;2022-11-15T15:44:50;7.45;;;2.50;;
56233;SDS011;42141;53.240;6.580;2022-11-15T15:47:18;5.78;;;2.20;;
56233;SDS011;42141;53.240;6.580;2022-11-15T15:49:45;6.35;;;2.22;;
56233;SDS011;42141;53.240;6.580;2022-11-15T15:52:12;3.67;;;2.10;;
56233;SDS011;42141;53.240;6.580;2022-11-15T15:54:38;2.53;;;1.92;;
56233;SDS011;42141;53.240;6.580;2022-11-15T15:57:05;6.00;;;2.20;;
56233;SDS011;42141;53.240;6.580;2022-11-15T15:59:32;7.13;;;2.53;;
56233;SDS011;42141;53.240;6.580;2022-11-15T16:01:58;8.30;;;2.58;;
56233;SDS011;42141;53.240;6.580;2022-11-15T16:04:24;7.95;;;3.25;;
56233;SDS011;42141;53.240;6.580;2022-11-15T16:06:50;16.50;;;3.17;;
56233;SDS011;42141;53.240;6.580;2022-11-15T16:09:19;7.60;;;2.85;;
56233;SDS011;42141;53.240;6.580;2022-11-15T16:12:08;7.50;;;2.80;;
56233;SDS011;42141;53.240;6.580;2022-11-15T16:14:33;7.38;;;3.85;;
56233;SDS011;42141;53.240;6.580;2022-11-15T16:16:59;10.32;;;3.97;;
56233;SDS011;42141;53.240;6.580;2022-11-15T16:19:25;6.53;;;3.75;;
56233;SDS011;42141;53.240;6.580;2022-11-15T16:21:50;7.88;;;3.35;;
56233;SDS011;42141;53.240;6.580;2022-11-15T16:24:19;5.88;;;3.25;;
56233;SDS011;42141;53.240;6.580;2022-11-15T16:26:46;7.03;;;3.65;;
56233;SDS011;42141;53.240;6.580;2022-11-15T16:29:13;5.18;;;3.28;;
56233;SDS011;42141;53.240;6.580;2022-11-15T16:31:42;7.47;;;3.05;;
56233;SDS011;42141;53.240;6.580;2022-11-15T16:34:10;4.32;;;3.00;;
56233;SDS011;42141;53.240;6.580;2022-11-15T16:36:36;5.55;;;3.33;;
56233;SDS011;42141;53.240;6.580;2022-11-15T16:39:02;3.78;;;2.78;;
56233;SDS011;42141;53.240;6.580;2022-11-15T16:41:31;4.85;;;3.42;;
56233;SDS011;42141;53.240;6.580;2022-11-15T16:43:57;6.45;;;3.00;;
56233;SDS011;42141;53.240;6.580;2022-11-15T16:46:24;5.25;;;3.30;;